Pewamo, Michigan
Current Conditions -  °F | °C
As of 10:53 PM on Friday 28 Nov 2014 (Local Time) from KY70 Reporting Station
Overcast Overcast  
Wind Chill: 20°   Ceiling: 2900
Heat Index: 28°   Visibility: 10mi
Dew Point: 23°   Wind: 9mph
Humidity: 81%   Direction: 160°SSE
Pressure: 30"   Gusts: NA
Location:  43°N, 84.85°W
Report Text: KY70 290353Z AUTO 16008KT 10SM OVC029 M02/M05 A3000 RMK AO2 T10201048
Loading
Personal Weather Stations






























Interactive Weather Map New forecast layout! Learn more

10-Day Weather Forecast

Advertisements
Track Severe Weather on mobile